EKRK

Copenhagen Roskilde Airport

Copenhagen, Denmark
TAF EKRK 170805Z 1709/1718 15008KT 9999 BKN020 TEMPO 1709/1718 BKN012
Issued Valid From Valid To
Nov-17 @ 08:05 UTC
(2 hours ago)
Nov-17 @ 09:00 UTC
(38 minutes ago)
Nov-17 @ 18:00 UTC
(in 8 hours)
Nov-17 @ 09:00 to Nov-17 @ 18:00
TAF EKRK 170805Z 1709/1718 15008KT 9999 BKN020
Wind Visibility Clouds
150° at 8 knots 10,000+ meters
  • Broken at 2,000' AGL
Temporary Nov-17 @ 09:00 to Nov-17 @ 18:00
TEMPO 1709/1718 BKN012
Clouds
  • Broken at 1,200' AGL
TAF EKRK 170805Z 1709/1718 15008KT 9999 BKN020 TEMPO 1709/1718 BKN012
Issued Nov-17 @ 08:05 UTC
(2 hours ago)
Valid From Nov-17 @ 09:00 UTC
(38 minutes ago)
Valid To Nov-17 @ 18:00 UTC
(in 8 hours)
Nov-17 @ 09:00 - Nov-17 @ 18:00
Wind Visibility
150° at 8 knots 10,000+ meters
Clouds
  • Broken at 2,000' AGL
Temporary Nov-17 @ 09:00 - Nov-17 @ 18:00
Clouds
  • Broken at 1,200' AGL